createdAt,value
2018-03-15T00:01:35.730Z,61.59
2018-03-15T00:06:37.103Z,61.52
2018-03-15T00:11:38.519Z,61.60
2018-03-15T00:16:39.912Z,61.31
2018-03-15T00:21:41.292Z,61.87
2018-03-15T00:26:42.655Z,62.08
2018-03-15T00:31:43.987Z,61.72
2018-03-15T00:36:45.350Z,61.88
2018-03-15T00:41:46.702Z,61.95
2018-03-15T00:46:48.036Z,61.82
2018-03-15T00:51:49.457Z,61.45
2018-03-15T00:56:50.842Z,61.88
2018-03-15T01:01:52.262Z,61.96
2018-03-15T01:06:53.628Z,62.13
2018-03-15T01:11:55.093Z,63.00
2018-03-15T01:16:56.485Z,63.67
2018-03-15T01:21:57.917Z,62.69
2018-03-15T01:26:59.279Z,63.02
2018-03-15T01:32:00.662Z,62.47
2018-03-15T01:37:02.017Z,62.55
2018-03-15T01:42:03.427Z,63.32
2018-03-15T01:47:04.829Z,63.40
2018-03-15T01:52:06.202Z,63.10
2018-03-15T01:57:07.595Z,63.29
2018-03-15T02:02:08.953Z,63.46
2018-03-15T02:07:10.325Z,63.63
2018-03-15T02:12:11.664Z,63.71
2018-03-15T02:17:13.086Z,64.22
2018-03-15T02:22:14.444Z,63.79
2018-03-15T02:27:15.882Z,64.19
2018-03-15T02:32:18.525Z,64.43
2018-03-15T02:37:19.916Z,64.79
2018-03-15T02:42:21.250Z,65.54
2018-03-15T02:47:22.620Z,65.94
2018-03-15T02:52:24.042Z,65.96
2018-03-15T02:57:25.390Z,66.88
2018-03-15T03:02:26.732Z,67.22
2018-03-15T03:07:28.117Z,68.00
2018-03-15T03:12:29.487Z,68.27
2018-03-15T03:17:30.874Z,69.38
2018-03-15T03:22:32.243Z,69.70
2018-03-15T03:27:33.639Z,69.77
2018-03-15T03:32:35.086Z,69.71
2018-03-15T03:37:36.495Z,69.87
2018-03-15T03:42:37.926Z,70.32
2018-03-15T03:47:39.368Z,70.64
2018-03-15T03:52:40.718Z,71.21
2018-03-15T03:57:42.075Z,71.95
2018-03-15T04:02:44.178Z,72.70
2018-03-15T04:07:46.283Z,72.38
2018-03-15T04:12:47.644Z,73.11
2018-03-15T04:17:49.009Z,73.75
2018-03-15T04:22:50.354Z,74.29
2018-03-15T04:27:52.481Z,74.46
2018-03-15T04:32:54.148Z,74.86
2018-03-15T04:37:55.492Z,74.79
2018-03-15T04:42:56.843Z,74.98
2018-03-15T04:47:58.916Z,75.79
2018-03-15T04:53:00.268Z,75.50
2018-03-15T04:58:01.620Z,75.50
2018-03-15T05:03:03.715Z,75.41
2018-03-15T05:08:05.176Z,75.79
2018-03-15T05:13:07.482Z,75.57
2018-03-15T05:18:08.948Z,75.77
2018-03-15T05:23:10.308Z,75.88
2018-03-15T05:28:11.660Z,75.91
2018-03-15T05:33:13.053Z,75.79
2018-03-15T05:38:14.382Z,75.87
2018-03-15T05:43:15.717Z,75.52
2018-03-15T05:48:17.099Z,76.05
2018-03-15T05:53:18.426Z,76.45
2018-03-15T05:58:19.763Z,75.81
2018-03-15T06:03:21.096Z,76.03
2018-03-15T06:08:22.428Z,75.85
2018-03-15T06:13:23.804Z,75.79
2018-03-15T06:18:25.160Z,75.58
2018-03-15T06:23:26.492Z,74.97
2018-03-15T06:28:28.621Z,74.51
2018-03-15T06:33:29.972Z,74.12
2018-03-15T06:38:31.374Z,73.95
2018-03-15T06:43:32.723Z,73.18
2018-03-15T06:48:34.104Z,73.38
2018-03-15T06:53:35.449Z,72.83
2018-03-15T06:58:37.202Z,72.00
2018-03-15T07:03:38.552Z,71.90
2018-03-15T07:08:39.938Z,71.58
2018-03-15T07:13:42.025Z,71.19
2018-03-15T07:18:43.391Z,70.37
2018-03-15T07:23:44.752Z,69.72
2018-03-15T07:28:46.090Z,69.79
2018-03-15T07:33:47.426Z,69.55
2018-03-15T07:38:48.761Z,69.52
2018-03-15T07:43:50.088Z,68.89
2018-03-15T07:48:51.424Z,68.62
2018-03-15T07:53:52.760Z,68.02
2018-03-15T07:58:54.833Z,68.07
2018-03-15T08:03:56.207Z,67.19
2018-03-15T08:08:57.585Z,66.74
2018-03-15T08:13:58.948Z,65.77
2018-03-15T08:19:00.280Z,65.55
2018-03-15T08:24:01.627Z,64.27
2018-03-15T08:29:02.999Z,63.31
2018-03-15T08:34:05.096Z,63.07
2018-03-15T08:39:07.324Z,62.16
2018-03-15T08:44:09.409Z,61.89
2018-03-15T08:49:10.803Z,61.75
2018-03-15T08:54:12.160Z,61.74
2018-03-15T08:59:13.558Z,60.87
2018-03-15T09:04:14.949Z,60.91
2018-03-15T09:09:16.268Z,61.02
2018-03-15T09:14:18.371Z,60.90
2018-03-15T09:19:19.711Z,61.04
2018-03-15T09:24:21.056Z,60.69
2018-03-15T09:29:23.140Z,60.41
2018-03-15T09:34:24.545Z,59.64
2018-03-15T09:39:25.845Z,59.44
2018-03-15T09:44:27.932Z,59.39
2018-03-15T09:49:30.019Z,58.65
2018-03-15T09:54:31.354Z,59.14
2018-03-15T09:59:32.732Z,59.44
2018-03-15T10:04:34.068Z,59.15
2018-03-15T10:09:35.456Z,58.08
2018-03-15T10:14:36.866Z,57.61
2018-03-15T10:19:38.220Z,57.91
2018-03-15T10:24:39.621Z,57.60
2018-03-15T10:29:40.981Z,58.55
2018-03-15T10:34:42.451Z,58.05
2018-03-15T10:39:43.794Z,56.66
2018-03-15T10:44:45.160Z,57.56
2018-03-15T10:49:46.572Z,57.62
2018-03-15T10:54:47.883Z,56.75
2018-03-15T10:59:49.304Z,57.44
2018-03-15T11:04:56.623Z,56.03
2018-03-15T11:09:57.964Z,56.51
2018-03-15T11:14:59.283Z,57.36
2018-03-15T11:20:00.597Z,56.15
2018-03-15T11:25:01.964Z,56.40
2018-03-15T11:30:03.347Z,55.03
2018-03-15T11:35:04.671Z,55.43
2018-03-15T11:40:06.763Z,54.57
2018-03-15T11:45:08.079Z,54.23
2018-03-15T11:50:10.139Z,55.08
2018-03-15T11:55:11.472Z,54.80
2018-03-15T12:00:13.555Z,55.34
2018-03-15T12:05:14.880Z,54.22
2018-03-15T12:10:16.935Z,55.54
2018-03-15T12:15:18.256Z,54.81
2018-03-15T12:20:20.381Z,54.64
2018-03-15T12:25:22.427Z,54.77
2018-03-15T12:30:23.757Z,54.55
2018-03-15T12:35:25.072Z,54.62
2018-03-15T12:40:27.140Z,54.51
2018-03-15T12:45:28.462Z,54.34
2018-03-15T12:50:30.539Z,55.59
2018-03-15T12:55:31.808Z,54.80
2018-03-15T13:00:33.108Z,55.35
2018-03-15T13:05:34.400Z,55.23
2018-03-15T13:10:35.708Z,55.21
2018-03-15T13:15:37.004Z,54.18
2018-03-15T13:20:39.061Z,54.54
2018-03-15T13:25:40.358Z,55.00
2018-03-15T13:30:41.678Z,54.59
2018-03-15T13:35:42.995Z,54.53
2018-03-15T13:40:44.302Z,54.17
2018-03-15T13:45:45.608Z,54.00
2018-03-15T13:50:46.919Z,54.29
2018-03-15T13:55:48.208Z,53.85
2018-03-15T14:00:49.516Z,54.38
2018-03-15T14:05:51.591Z,53.57
2018-03-15T14:10:52.890Z,54.21
2018-03-15T14:15:54.191Z,53.67
2018-03-15T14:20:55.488Z,53.21
2018-03-15T14:25:56.792Z,53.80
2018-03-15T14:30:58.823Z,53.28
2018-03-15T14:36:00.140Z,53.49
2018-03-15T14:41:01.467Z,53.71
2018-03-15T14:46:03.524Z,53.95
2018-03-15T14:51:04.860Z,53.85
2018-03-15T14:56:06.892Z,53.94
2018-03-15T15:01:08.192Z,54.38
2018-03-15T15:06:09.543Z,54.34
2018-03-15T15:11:11.619Z,54.16
2018-03-15T15:16:13.025Z,54.74
2018-03-15T15:21:14.286Z,54.93
2018-03-15T15:26:15.620Z,54.75
2018-03-15T15:31:17.686Z,54.90
2018-03-15T15:36:19.001Z,55.13
2018-03-15T15:41:20.319Z,54.70
2018-03-15T15:46:22.356Z,54.92
2018-03-15T15:51:23.675Z,54.96
2018-03-15T15:56:25.084Z,55.35
2018-03-15T16:01:27.480Z,55.28
2018-03-15T16:06:28.790Z,55.20
2018-03-15T16:11:30.135Z,55.18
2018-03-15T16:16:31.472Z,55.31
2018-03-15T16:21:32.933Z,55.56
2018-03-15T16:26:34.236Z,55.83
2018-03-15T16:31:35.532Z,56.08
2018-03-15T16:36:36.907Z,56.04
2018-03-15T16:41:38.224Z,56.71
2018-03-15T16:46:39.591Z,57.04
2018-03-15T16:51:40.952Z,57.25
2018-03-15T16:56:42.327Z,57.24
2018-03-15T17:01:44.372Z,57.56
2018-03-15T17:06:45.668Z,57.70
2018-03-15T17:11:46.973Z,57.84
2018-03-15T17:16:48.284Z,57.86
2018-03-15T17:21:50.322Z,57.83
2018-03-15T17:26:51.628Z,58.09
2018-03-15T17:31:52.946Z,58.24
2018-03-15T17:36:54.250Z,58.86
2018-03-15T17:41:55.540Z,59.68
2018-03-15T17:46:56.827Z,60.78
2018-03-15T17:51:58.931Z,61.29
2018-03-15T17:57:00.228Z,61.40
2018-03-15T18:02:02.303Z,61.86
2018-03-15T18:07:03.628Z,62.00
2018-03-15T18:12:05.663Z,62.47
2018-03-15T18:17:07.840Z,62.50
2018-03-15T18:22:09.955Z,62.80
2018-03-15T18:27:12.009Z,63.04
2018-03-15T18:32:13.373Z,63.38
2018-03-15T18:37:14.724Z,63.16
2018-03-15T18:42:16.024Z,62.89
2018-03-15T18:47:18.158Z,63.14
2018-03-15T18:52:19.473Z,62.77
2018-03-15T18:57:21.814Z,63.01
2018-03-15T19:02:23.195Z,63.20
2018-03-15T19:07:24.516Z,63.38
2018-03-15T19:12:27.561Z,63.34
2018-03-15T19:17:28.904Z,63.32
2018-03-15T19:22:30.238Z,63.60
2018-03-15T19:27:31.540Z,63.88
2018-03-15T19:32:32.831Z,63.55
2018-03-15T19:37:34.144Z,64.03
2018-03-15T19:42:35.511Z,63.81
2018-03-15T19:47:36.849Z,63.65
2018-03-15T19:52:38.165Z,64.10
2018-03-15T19:57:40.220Z,64.47
2018-03-15T20:02:41.540Z,64.63
2018-03-15T20:07:42.967Z,64.40
2018-03-15T20:12:44.337Z,64.05
2018-03-15T20:17:45.593Z,64.01
2018-03-15T20:28:36.367Z,64.08
2018-03-15T20:33:43.835Z,63.66
2018-03-15T20:38:45.324Z,64.25
2018-03-15T20:43:46.630Z,64.39
2018-03-15T20:48:54.001Z,64.45
2018-03-15T20:53:55.543Z,65.00
2018-03-15T20:58:56.847Z,65.08
2018-03-15T21:03:58.341Z,64.81
2018-03-15T21:09:01.067Z,64.50
2018-03-15T21:14:03.416Z,64.69
2018-03-15T21:19:04.961Z,65.04
2018-03-15T21:24:07.456Z,65.29
2018-03-15T21:29:09.567Z,65.48
2018-03-15T21:34:11.911Z,65.25
2018-03-15T21:39:13.671Z,65.58
2018-03-15T21:44:15.304Z,65.30
2018-03-15T21:49:17.183Z,65.62
2018-03-15T21:54:18.516Z,65.66
2018-03-15T21:59:20.827Z,66.47
2018-03-15T22:04:22.933Z,66.29
2018-03-15T22:09:24.576Z,66.68
2018-03-15T22:14:26.043Z,67.08
2018-03-15T22:19:27.465Z,66.95
2018-03-15T22:24:29.243Z,66.91
2018-03-15T22:29:31.384Z,67.65
2018-03-15T22:34:32.753Z,67.71
2018-03-15T22:39:34.740Z,67.56
2018-03-15T22:44:37.016Z,67.73
2018-03-15T22:49:38.511Z,67.77
2018-03-15T22:54:40.504Z,67.57
2018-03-15T22:59:42.721Z,68.14
2018-03-15T23:04:44.398Z,68.15
2018-03-15T23:09:45.917Z,68.25
2018-03-15T23:14:48.008Z,68.61
2018-03-15T23:19:49.351Z,68.21
2018-03-15T23:24:50.719Z,67.61
2018-03-15T23:29:52.748Z,67.76
2018-03-15T23:34:54.068Z,67.46
2018-03-15T23:39:55.369Z,67.32
2018-03-15T23:44:56.668Z,67.10
2018-03-15T23:49:57.964Z,67.05
2018-03-15T23:54:59.308Z,67.55
